sensor_id;sensor_type;location;lat;lon;timestamp;P1;durP1;ratioP1;P2;durP2;ratioP2
19554;SDS011;9924;50.828;6.440;2023-02-18T00:00:32;12.48;;;8.35;;
19554;SDS011;9924;50.828;6.440;2023-02-18T00:03:17;11.98;;;7.80;;
19554;SDS011;9924;50.828;6.440;2023-02-18T00:06:09;11.70;;;7.97;;
19554;SDS011;9924;50.828;6.440;2023-02-18T00:08:57;13.10;;;7.90;;
19554;SDS011;9924;50.828;6.440;2023-02-18T00:11:44;11.73;;;7.90;;
19554;SDS011;9924;50.828;6.440;2023-02-18T00:14:29;10.35;;;7.60;;
19554;SDS011;9924;50.828;6.440;2023-02-18T00:17:13;11.65;;;7.90;;
19554;SDS011;9924;50.828;6.440;2023-02-18T00:19:58;12.55;;;8.30;;
19554;SDS011;9924;50.828;6.440;2023-02-18T00:22:42;14.35;;;8.77;;
19554;SDS011;9924;50.828;6.440;2023-02-18T00:25:27;13.63;;;8.90;;
19554;SDS011;9924;50.828;6.440;2023-02-18T00:28:11;13.75;;;8.98;;
19554;SDS011;9924;50.828;6.440;2023-02-18T00:30:56;14.60;;;9.50;;
19554;SDS011;9924;50.828;6.440;2023-02-18T00:33:40;14.88;;;9.48;;
19554;SDS011;9924;50.828;6.440;2023-02-18T00:36:25;14.73;;;9.07;;
19554;SDS011;9924;50.828;6.440;2023-02-18T00:39:10;11.68;;;8.43;;
19554;SDS011;9924;50.828;6.440;2023-02-18T00:41:55;13.43;;;8.45;;
19554;SDS011;9924;50.828;6.440;2023-02-18T00:44:40;15.38;;;8.90;;
19554;SDS011;9924;50.828;6.440;2023-02-18T00:47:24;14.23;;;8.57;;
19554;SDS011;9924;50.828;6.440;2023-02-18T00:50:09;13.88;;;7.88;;
19554;SDS011;9924;50.828;6.440;2023-02-18T00:52:53;12.57;;;8.18;;
19554;SDS011;9924;50.828;6.440;2023-02-18T00:55:41;11.60;;;8.35;;
19554;SDS011;9924;50.828;6.440;2023-02-18T00:58:27;12.18;;;7.90;;
19554;SDS011;9924;50.828;6.440;2023-02-18T01:01:12;10.20;;;7.28;;
19554;SDS011;9924;50.828;6.440;2023-02-18T01:03:56;12.93;;;7.82;;
19554;SDS011;9924;50.828;6.440;2023-02-18T01:06:40;11.50;;;7.57;;
19554;SDS011;9924;50.828;6.440;2023-02-18T01:09:25;12.63;;;7.93;;
19554;SDS011;9924;50.828;6.440;2023-02-18T01:12:09;11.60;;;7.45;;
19554;SDS011;9924;50.828;6.440;2023-02-18T01:14:54;11.85;;;7.75;;
19554;SDS011;9924;50.828;6.440;2023-02-18T01:17:38;12.23;;;8.20;;
19554;SDS011;9924;50.828;6.440;2023-02-18T01:20:23;11.85;;;6.65;;
19554;SDS011;9924;50.828;6.440;2023-02-18T01:23:08;9.95;;;6.82;;
19554;SDS011;9924;50.828;6.440;2023-02-18T01:25:52;8.77;;;6.13;;
19554;SDS011;9924;50.828;6.440;2023-02-18T01:28:37;8.63;;;5.82;;
19554;SDS011;9924;50.828;6.440;2023-02-18T01:31:23;8.95;;;5.82;;
19554;SDS011;9924;50.828;6.440;2023-02-18T01:34:07;11.45;;;6.07;;
19554;SDS011;9924;50.828;6.440;2023-02-18T01:36:51;8.10;;;5.30;;
19554;SDS011;9924;50.828;6.440;2023-02-18T01:39:36;8.68;;;6.00;;
19554;SDS011;9924;50.828;6.440;2023-02-18T01:42:22;9.70;;;6.22;;
19554;SDS011;9924;50.828;6.440;2023-02-18T01:48:22;8.13;;;5.57;;
19554;SDS011;9924;50.828;6.440;2023-02-18T01:51:13;7.55;;;5.10;;
19554;SDS011;9924;50.828;6.440;2023-02-18T01:57:05;5.97;;;4.28;;
19554;SDS011;9924;50.828;6.440;2023-02-18T02:02:43;6.80;;;4.68;;
19554;SDS011;9924;50.828;6.440;2023-02-18T02:05:22;5.55;;;4.00;;
19554;SDS011;9924;50.828;6.440;2023-02-18T02:08:12;5.38;;;3.97;;
19554;SDS011;9924;50.828;6.440;2023-02-18T02:11:06;7.82;;;4.57;;
19554;SDS011;9924;50.828;6.440;2023-02-18T02:33:46;4.78;;;2.97;;
19554;SDS011;9924;50.828;6.440;2023-02-18T02:43:11;2.63;;;2.13;;
19554;SDS011;9924;50.828;6.440;2023-02-18T02:46:37;3.30;;;2.58;;
19554;SDS011;9924;50.828;6.440;2023-02-18T02:49:48;3.13;;;2.58;;
19554;SDS011;9924;50.828;6.440;2023-02-18T02:52:59;3.50;;;2.45;;
19554;SDS011;9924;50.828;6.440;2023-02-18T02:55:49;2.35;;;1.80;;
19554;SDS011;9924;50.828;6.440;2023-02-18T02:58:34;2.85;;;1.98;;
19554;SDS011;9924;50.828;6.440;2023-02-18T03:16:49;1.70;;;1.42;;
19554;SDS011;9924;50.828;6.440;2023-02-18T03:19:46;2.35;;;1.50;;
19554;SDS011;9924;50.828;6.440;2023-02-18T03:22:41;2.17;;;1.30;;
19554;SDS011;9924;50.828;6.440;2023-02-18T03:25:31;2.03;;;1.30;;
19554;SDS011;9924;50.828;6.440;2023-02-18T03:28:18;1.55;;;1.30;;
19554;SDS011;9924;50.828;6.440;2023-02-18T03:31:09;2.63;;;1.30;;
19554;SDS011;9924;50.828;6.440;2023-02-18T03:34:03;2.13;;;1.38;;
19554;SDS011;9924;50.828;6.440;2023-02-18T03:36:52;1.77;;;1.10;;
19554;SDS011;9924;50.828;6.440;2023-02-18T03:39:40;2.08;;;1.27;;
19554;SDS011;9924;50.828;6.440;2023-02-18T03:42:28;1.67;;;1.35;;
19554;SDS011;9924;50.828;6.440;2023-02-18T03:45:13;1.20;;;0.90;;
19554;SDS011;9924;50.828;6.440;2023-02-18T03:47:57;1.35;;;1.00;;
19554;SDS011;9924;50.828;6.440;2023-02-18T03:50:41;1.08;;;0.90;;
19554;SDS011;9924;50.828;6.440;2023-02-18T03:53:26;1.25;;;1.15;;
19554;SDS011;9924;50.828;6.440;2023-02-18T03:56:12;1.52;;;1.17;;
19554;SDS011;9924;50.828;6.440;2023-02-18T03:58:57;3.45;;;1.20;;
19554;SDS011;9924;50.828;6.440;2023-02-18T04:01:42;1.20;;;0.95;;
19554;SDS011;9924;50.828;6.440;2023-02-18T04:04:27;1.48;;;1.00;;
19554;SDS011;9924;50.828;6.440;2023-02-18T04:07:12;1.60;;;1.10;;
19554;SDS011;9924;50.828;6.440;2023-02-18T04:09:57;1.85;;;1.20;;
19554;SDS011;9924;50.828;6.440;2023-02-18T04:12:43;1.75;;;1.38;;
19554;SDS011;9924;50.828;6.440;2023-02-18T04:15:28;1.48;;;1.08;;
19554;SDS011;9924;50.828;6.440;2023-02-18T04:18:13;1.35;;;1.02;;
19554;SDS011;9924;50.828;6.440;2023-02-18T04:20:58;1.50;;;1.20;;
19554;SDS011;9924;50.828;6.440;2023-02-18T04:23:42;1.58;;;1.13;;
19554;SDS011;9924;50.828;6.440;2023-02-18T04:26:26;1.38;;;1.00;;
19554;SDS011;9924;50.828;6.440;2023-02-18T04:29:11;1.73;;;1.20;;
19554;SDS011;9924;50.828;6.440;2023-02-18T04:31:55;1.63;;;1.20;;
19554;SDS011;9924;50.828;6.440;2023-02-18T04:34:40;1.70;;;1.27;;
19554;SDS011;9924;50.828;6.440;2023-02-18T04:37:25;1.77;;;1.45;;
19554;SDS011;9924;50.828;6.440;2023-02-18T04:40:10;1.67;;;1.38;;
19554;SDS011;9924;50.828;6.440;2023-02-18T04:42:55;4.88;;;2.05;;
19554;SDS011;9924;50.828;6.440;2023-02-18T04:45:41;2.85;;;1.70;;
19554;SDS011;9924;50.828;6.440;2023-02-18T04:48:27;3.13;;;1.80;;
19554;SDS011;9924;50.828;6.440;2023-02-18T04:51:11;2.63;;;1.90;;
19554;SDS011;9924;50.828;6.440;2023-02-18T04:53:56;6.55;;;2.78;;
19554;SDS011;9924;50.828;6.440;2023-02-18T04:56:42;4.20;;;2.50;;
19554;SDS011;9924;50.828;6.440;2023-02-18T04:59:26;4.75;;;2.83;;
19554;SDS011;9924;50.828;6.440;2023-02-18T05:02:11;4.18;;;2.67;;
19554;SDS011;9924;50.828;6.440;2023-02-18T05:04:55;2.97;;;2.30;;
19554;SDS011;9924;50.828;6.440;2023-02-18T05:07:40;3.45;;;2.00;;
19554;SDS011;9924;50.828;6.440;2023-02-18T05:10:28;2.97;;;2.22;;
19554;SDS011;9924;50.828;6.440;2023-02-18T05:13:12;2.63;;;1.55;;
19554;SDS011;9924;50.828;6.440;2023-02-18T05:15:57;2.75;;;1.50;;
19554;SDS011;9924;50.828;6.440;2023-02-18T05:18:42;1.75;;;1.27;;
19554;SDS011;9924;50.828;6.440;2023-02-18T05:21:27;1.80;;;1.33;;
19554;SDS011;9924;50.828;6.440;2023-02-18T05:24:11;1.83;;;1.33;;
19554;SDS011;9924;50.828;6.440;2023-02-18T05:26:56;3.05;;;1.60;;
19554;SDS011;9924;50.828;6.440;2023-02-18T05:29:40;2.10;;;1.60;;
19554;SDS011;9924;50.828;6.440;2023-02-18T05:32:26;2.35;;;1.70;;
19554;SDS011;9924;50.828;6.440;2023-02-18T05:35:25;2.33;;;1.45;;
19554;SDS011;9924;50.828;6.440;2023-02-18T05:38:10;2.30;;;1.52;;
19554;SDS011;9924;50.828;6.440;2023-02-18T05:40:55;2.03;;;1.40;;
19554;SDS011;9924;50.828;6.440;2023-02-18T05:43:44;1.27;;;1.10;;
19554;SDS011;9924;50.828;6.440;2023-02-18T05:46:47;1.23;;;1.00;;
19554;SDS011;9924;50.828;6.440;2023-02-18T05:49:32;1.65;;;0.90;;
19554;SDS011;9924;50.828;6.440;2023-02-18T05:52:18;1.20;;;0.95;;
19554;SDS011;9924;50.828;6.440;2023-02-18T05:55:05;1.30;;;1.00;;
19554;SDS011;9924;50.828;6.440;2023-02-18T05:57:49;1.15;;;0.75;;
19554;SDS011;9924;50.828;6.440;2023-02-18T06:00:34;1.30;;;0.80;;
19554;SDS011;9924;50.828;6.440;2023-02-18T06:03:25;0.68;;;0.65;;
19554;SDS011;9924;50.828;6.440;2023-02-18T06:06:10;0.70;;;0.60;;
19554;SDS011;9924;50.828;6.440;2023-02-18T06:08:55;0.65;;;0.60;;
19554;SDS011;9924;50.828;6.440;2023-02-18T06:11:40;0.82;;;0.70;;
19554;SDS011;9924;50.828;6.440;2023-02-18T06:14:25;0.80;;;0.60;;
19554;SDS011;9924;50.828;6.440;2023-02-18T06:17:10;0.50;;;0.50;;
19554;SDS011;9924;50.828;6.440;2023-02-18T06:19:56;0.50;;;0.50;;
19554;SDS011;9924;50.828;6.440;2023-02-18T06:22:41;1.92;;;0.50;;
19554;SDS011;9924;50.828;6.440;2023-02-18T06:25:25;0.60;;;0.57;;
19554;SDS011;9924;50.828;6.440;2023-02-18T06:28:10;0.70;;;0.70;;
19554;SDS011;9924;50.828;6.440;2023-02-18T06:30:57;0.60;;;0.60;;
19554;SDS011;9924;50.828;6.440;2023-02-18T06:33:43;0.80;;;0.60;;
19554;SDS011;9924;50.828;6.440;2023-02-18T06:36:28;0.70;;;0.55;;
19554;SDS011;9924;50.828;6.440;2023-02-18T06:39:14;0.60;;;0.50;;
19554;SDS011;9924;50.828;6.440;2023-02-18T06:41:58;0.70;;;0.60;;
19554;SDS011;9924;50.828;6.440;2023-02-18T06:44:48;0.93;;;0.55;;
19554;SDS011;9924;50.828;6.440;2023-02-18T06:47:33;2.03;;;0.73;;
19554;SDS011;9924;50.828;6.440;2023-02-18T06:50:19;0.77;;;0.75;;
19554;SDS011;9924;50.828;6.440;2023-02-18T06:53:04;0.73;;;0.63;;
19554;SDS011;9924;50.828;6.440;2023-02-18T06:55:50;1.25;;;0.65;;
19554;SDS011;9924;50.828;6.440;2023-02-18T06:58:35;1.40;;;1.30;;
19554;SDS011;9924;50.828;6.440;2023-02-18T07:01:22;1.27;;;0.77;;
19554;SDS011;9924;50.828;6.440;2023-02-18T07:04:08;1.08;;;0.85;;
19554;SDS011;9924;50.828;6.440;2023-02-18T07:06:52;0.93;;;0.82;;
19554;SDS011;9924;50.828;6.440;2023-02-18T07:09:40;1.17;;;0.90;;
19554;SDS011;9924;50.828;6.440;2023-02-18T07:12:24;1.42;;;1.17;;
19554;SDS011;9924;50.828;6.440;2023-02-18T07:15:09;1.80;;;1.70;;
19554;SDS011;9924;50.828;6.440;2023-02-18T07:17:54;1.10;;;1.00;;
19554;SDS011;9924;50.828;6.440;2023-02-18T07:20:39;0.75;;;0.70;;
19554;SDS011;9924;50.828;6.440;2023-02-18T07:23:25;1.20;;;1.10;;
19554;SDS011;9924;50.828;6.440;2023-02-18T07:26:10;1.15;;;0.70;;
19554;SDS011;9924;50.828;6.440;2023-02-18T07:28:57;1.17;;;1.08;;
19554;SDS011;9924;50.828;6.440;2023-02-18T07:31:41;1.20;;;1.10;;
19554;SDS011;9924;50.828;6.440;2023-02-18T07:34:26;1.65;;;1.20;;
19554;SDS011;9924;50.828;6.440;2023-02-18T07:37:11;1.00;;;0.90;;
19554;SDS011;9924;50.828;6.440;2023-02-18T07:39:56;1.67;;;1.00;;
19554;SDS011;9924;50.828;6.440;2023-02-18T07:42:41;0.85;;;0.80;;
19554;SDS011;9924;50.828;6.440;2023-02-18T07:45:26;2.88;;;1.10;;
19554;SDS011;9924;50.828;6.440;2023-02-18T07:48:11;3.97;;;1.30;;
19554;SDS011;9924;50.828;6.440;2023-02-18T07:50:59;4.65;;;1.35;;
19554;SDS011;9924;50.828;6.440;2023-02-18T07:53:44;2.67;;;1.42;;
19554;SDS011;9924;50.828;6.440;2023-02-18T07:56:29;3.53;;;1.63;;
19554;SDS011;9924;50.828;6.440;2023-02-18T07:59:16;3.20;;;1.30;;
19554;SDS011;9924;50.828;6.440;2023-02-18T08:02:03;5.43;;;2.33;;
19554;SDS011;9924;50.828;6.440;2023-02-18T08:04:50;7.80;;;1.80;;
19554;SDS011;9924;50.828;6.440;2023-02-18T08:07:35;5.03;;;1.90;;
19554;SDS011;9924;50.828;6.440;2023-02-18T08:10:22;7.00;;;2.33;;
19554;SDS011;9924;50.828;6.440;2023-02-18T08:13:09;3.67;;;2.00;;
19554;SDS011;9924;50.828;6.440;2023-02-18T08:15:55;5.65;;;2.00;;
19554;SDS011;9924;50.828;6.440;2023-02-18T08:18:40;7.22;;;2.28;;
19554;SDS011;9924;50.828;6.440;2023-02-18T08:21:26;4.93;;;2.28;;
19554;SDS011;9924;50.828;6.440;2023-02-18T08:24:12;4.75;;;2.13;;
19554;SDS011;9924;50.828;6.440;2023-02-18T08:26:57;7.43;;;2.50;;
19554;SDS011;9924;50.828;6.440;2023-02-18T08:29:43;11.27;;;2.00;;
19554;SDS011;9924;50.828;6.440;2023-02-18T08:32:30;7.22;;;2.35;;
19554;SDS011;9924;50.828;6.440;2023-02-18T08:35:15;3.70;;;1.50;;
19554;SDS011;9924;50.828;6.440;2023-02-18T08:38:03;5.13;;;2.33;;
19554;SDS011;9924;50.828;6.440;2023-02-18T08:40:48;7.15;;;2.40;;
19554;SDS011;9924;50.828;6.440;2023-02-18T08:43:34;7.60;;;2.00;;
19554;SDS011;9924;50.828;6.440;2023-02-18T08:46:19;3.65;;;1.88;;
19554;SDS011;9924;50.828;6.440;2023-02-18T08:49:12;7.38;;;2.10;;
19554;SDS011;9924;50.828;6.440;2023-02-18T08:51:58;5.78;;;2.03;;
19554;SDS011;9924;50.828;6.440;2023-02-18T08:54:47;6.90;;;1.83;;
19554;SDS011;9924;50.828;6.440;2023-02-18T08:57:34;8.98;;;1.75;;
19554;SDS011;9924;50.828;6.440;2023-02-18T09:00:20;7.00;;;1.80;;
19554;SDS011;9924;50.828;6.440;2023-02-18T09:03:05;4.55;;;1.73;;
19554;SDS011;9924;50.828;6.440;2023-02-18T09:05:52;6.70;;;1.67;;
19554;SDS011;9924;50.828;6.440;2023-02-18T09:08:38;8.88;;;2.35;;
19554;SDS011;9924;50.828;6.440;2023-02-18T09:11:23;5.95;;;1.83;;
19554;SDS011;9924;50.828;6.440;2023-02-18T09:14:08;8.20;;;2.22;;
19554;SDS011;9924;50.828;6.440;2023-02-18T09:16:53;6.50;;;2.50;;
19554;SDS011;9924;50.828;6.440;2023-02-18T09:19:41;6.57;;;2.22;;
19554;SDS011;9924;50.828;6.440;2023-02-18T09:22:28;6.03;;;2.22;;
19554;SDS011;9924;50.828;6.440;2023-02-18T09:25:15;5.53;;;2.15;;
19554;SDS011;9924;50.828;6.440;2023-02-18T09:28:00;6.10;;;2.25;;
19554;SDS011;9924;50.828;6.440;2023-02-18T09:30:46;4.25;;;2.40;;
19554;SDS011;9924;50.828;6.440;2023-02-18T09:33:35;8.77;;;2.75;;
19554;SDS011;9924;50.828;6.440;2023-02-18T09:36:24;6.90;;;2.22;;
19554;SDS011;9924;50.828;6.440;2023-02-18T09:39:09;8.05;;;1.75;;
19554;SDS011;9924;50.828;6.440;2023-02-18T09:41:57;9.23;;;2.67;;
19554;SDS011;9924;50.828;6.440;2023-02-18T09:44:48;5.25;;;1.67;;
19554;SDS011;9924;50.828;6.440;2023-02-18T09:47:40;4.55;;;1.90;;
19554;SDS011;9924;50.828;6.440;2023-02-18T09:50:28;4.03;;;1.63;;
19554;SDS011;9924;50.828;6.440;2023-02-18T09:53:15;5.30;;;2.10;;
19554;SDS011;9924;50.828;6.440;2023-02-18T09:56:00;3.05;;;2.33;;
19554;SDS011;9924;50.828;6.440;2023-02-18T09:58:45;5.65;;;2.17;;
19554;SDS011;9924;50.828;6.440;2023-02-18T10:01:35;7.97;;;2.47;;
19554;SDS011;9924;50.828;6.440;2023-02-18T10:04:27;9.38;;;2.60;;
19554;SDS011;9924;50.828;6.440;2023-02-18T10:07:25;6.28;;;3.33;;
19554;SDS011;9924;50.828;6.440;2023-02-18T10:13:29;4.22;;;2.28;;
19554;SDS011;9924;50.828;6.440;2023-02-18T10:16:17;8.05;;;2.65;;
19554;SDS011;9924;50.828;6.440;2023-02-18T10:19:24;8.15;;;3.22;;
19554;SDS011;9924;50.828;6.440;2023-02-18T10:22:22;6.22;;;2.63;;
19554;SDS011;9924;50.828;6.440;2023-02-18T10:25:23;4.25;;;2.13;;
19554;SDS011;9924;50.828;6.440;2023-02-18T10:28:08;11.18;;;3.13;;
19554;SDS011;9924;50.828;6.440;2023-02-18T10:31:02;5.00;;;2.80;;
19554;SDS011;9924;50.828;6.440;2023-02-18T10:37:06;5.70;;;2.67;;
19554;SDS011;9924;50.828;6.440;2023-02-18T10:39:57;4.53;;;2.20;;
19554;SDS011;9924;50.828;6.440;2023-02-18T10:51:51;5.90;;;1.95;;
19554;SDS011;9924;50.828;6.440;2023-02-18T10:55:14;4.13;;;1.88;;
19554;SDS011;9924;50.828;6.440;2023-02-18T10:58:20;4.18;;;2.17;;
19554;SDS011;9924;50.828;6.440;2023-02-18T11:01:24;2.42;;;1.58;;
19554;SDS011;9924;50.828;6.440;2023-02-18T11:04:14;2.95;;;1.65;;
19554;SDS011;9924;50.828;6.440;2023-02-18T11:07:13;2.60;;;1.50;;
19554;SDS011;9924;50.828;6.440;2023-02-18T11:10:38;2.03;;;1.55;;
19554;SDS011;9924;50.828;6.440;2023-02-18T11:13:27;2.42;;;1.38;;
19554;SDS011;9924;50.828;6.440;2023-02-18T11:16:16;4.53;;;1.23;;
19554;SDS011;9924;50.828;6.440;2023-02-18T11:22:32;1.73;;;1.20;;
19554;SDS011;9924;50.828;6.440;2023-02-18T11:25:23;1.42;;;1.20;;
19554;SDS011;9924;50.828;6.440;2023-02-18T11:31:00;2.50;;;1.40;;
19554;SDS011;9924;50.828;6.440;2023-02-18T11:33:50;3.15;;;1.40;;
19554;SDS011;9924;50.828;6.440;2023-02-18T11:36:39;1.63;;;1.10;;
19554;SDS011;9924;50.828;6.440;2023-02-18T11:39:27;2.72;;;1.48;;
19554;SDS011;9924;50.828;6.440;2023-02-18T11:42:14;4.65;;;1.40;;
19554;SDS011;9924;50.828;6.440;2023-02-18T11:45:03;1.92;;;1.33;;
19554;SDS011;9924;50.828;6.440;2023-02-18T11:47:48;3.05;;;1.58;;
19554;SDS011;9924;50.828;6.440;2023-02-18T11:50:49;2.80;;;1.30;;
19554;SDS011;9924;50.828;6.440;2023-02-18T11:53:36;2.15;;;1.55;;
19554;SDS011;9924;50.828;6.440;2023-02-18T11:56:23;1.90;;;1.30;;
19554;SDS011;9924;50.828;6.440;2023-02-18T11:59:08;2.67;;;1.52;;
19554;SDS011;9924;50.828;6.440;2023-02-18T12:02:02;2.35;;;1.50;;
19554;SDS011;9924;50.828;6.440;2023-02-18T12:04:57;1.60;;;1.33;;
19554;SDS011;9924;50.828;6.440;2023-02-18T12:08:02;8.70;;;4.03;;
19554;SDS011;9924;50.828;6.440;2023-02-18T12:11:09;2.50;;;1.55;;
19554;SDS011;9924;50.828;6.440;2023-02-18T12:13:58;9.73;;;1.50;;
19554;SDS011;9924;50.828;6.440;2023-02-18T12:20:09;3.30;;;1.73;;
19554;SDS011;9924;50.828;6.440;2023-02-18T12:26:38;3.60;;;1.70;;
19554;SDS011;9924;50.828;6.440;2023-02-18T12:32:35;2.47;;;1.40;;
19554;SDS011;9924;50.828;6.440;2023-02-18T12:35:51;1.75;;;1.52;;
19554;SDS011;9924;50.828;6.440;2023-02-18T12:39:07;5.70;;;2.58;;
19554;SDS011;9924;50.828;6.440;2023-02-18T12:45:29;3.03;;;1.90;;
19554;SDS011;9924;50.828;6.440;2023-02-18T12:48:41;2.53;;;2.05;;
19554;SDS011;9924;50.828;6.440;2023-02-18T13:11:18;5.25;;;3.25;;
19554;SDS011;9924;50.828;6.440;2023-02-18T13:14:13;4.13;;;3.67;;
19554;SDS011;9924;50.828;6.440;2023-02-18T13:16:59;4.50;;;3.20;;
19554;SDS011;9924;50.828;6.440;2023-02-18T13:22:37;4.55;;;4.00;;
19554;SDS011;9924;50.828;6.440;2023-02-18T13:25:23;4.75;;;3.00;;
19554;SDS011;9924;50.828;6.440;2023-02-18T13:28:14;3.50;;;2.60;;
19554;SDS011;9924;50.828;6.440;2023-02-18T13:41:00;3.60;;;2.65;;
19554;SDS011;9924;50.828;6.440;2023-02-18T13:43:47;3.30;;;2.38;;
19554;SDS011;9924;50.828;6.440;2023-02-18T13:46:32;2.97;;;2.60;;
19554;SDS011;9924;50.828;6.440;2023-02-18T13:49:34;3.15;;;2.47;;
19554;SDS011;9924;50.828;6.440;2023-02-18T13:52:21;2.50;;;2.30;;
19554;SDS011;9924;50.828;6.440;2023-02-18T13:55:15;2.83;;;2.45;;
19554;SDS011;9924;50.828;6.440;2023-02-18T13:58:11;4.20;;;3.13;;
19554;SDS011;9924;50.828;6.440;2023-02-18T14:10:26;3.10;;;2.45;;
19554;SDS011;9924;50.828;6.440;2023-02-18T14:16:21;2.70;;;1.85;;
19554;SDS011;9924;50.828;6.440;2023-02-18T14:19:22;2.65;;;2.33;;
19554;SDS011;9924;50.828;6.440;2023-02-18T14:25:20;5.47;;;2.75;;
19554;SDS011;9924;50.828;6.440;2023-02-18T14:31:26;2.90;;;2.60;;
19554;SDS011;9924;50.828;6.440;2023-02-18T14:34:44;3.38;;;2.88;;
19554;SDS011;9924;50.828;6.440;2023-02-18T14:50:29;4.68;;;2.78;;
19554;SDS011;9924;50.828;6.440;2023-02-18T14:53:19;3.78;;;2.75;;
19554;SDS011;9924;50.828;6.440;2023-02-18T14:56:07;4.95;;;2.65;;
19554;SDS011;9924;50.828;6.440;2023-02-18T14:58:56;4.38;;;3.17;;
19554;SDS011;9924;50.828;6.440;2023-02-18T15:01:46;4.22;;;2.90;;
19554;SDS011;9924;50.828;6.440;2023-02-18T15:04:31;3.65;;;3.08;;
19554;SDS011;9924;50.828;6.440;2023-02-18T15:07:18;3.20;;;2.60;;
19554;SDS011;9924;50.828;6.440;2023-02-18T15:10:10;5.53;;;3.55;;
19554;SDS011;9924;50.828;6.440;2023-02-18T15:12:57;4.20;;;3.42;;
19554;SDS011;9924;50.828;6.440;2023-02-18T15:15:42;4.70;;;3.80;;
19554;SDS011;9924;50.828;6.440;2023-02-18T15:21:30;3.08;;;2.78;;
19554;SDS011;9924;50.828;6.440;2023-02-18T15:27:15;4.35;;;3.40;;
19554;SDS011;9924;50.828;6.440;2023-02-18T15:30:16;4.50;;;3.10;;
19554;SDS011;9924;50.828;6.440;2023-02-18T15:33:22;5.72;;;3.40;;
19554;SDS011;9924;50.828;6.440;2023-02-18T15:36:08;3.70;;;2.92;;
19554;SDS011;9924;50.828;6.440;2023-02-18T15:38:57;3.92;;;3.17;;
19554;SDS011;9924;50.828;6.440;2023-02-18T15:41:42;4.03;;;3.35;;
19554;SDS011;9924;50.828;6.440;2023-02-18T15:44:31;6.18;;;3.35;;
19554;SDS011;9924;50.828;6.440;2023-02-18T15:47:18;3.75;;;2.95;;
19554;SDS011;9924;50.828;6.440;2023-02-18T15:50:05;6.13;;;3.28;;
19554;SDS011;9924;50.828;6.440;2023-02-18T15:52:50;4.38;;;3.00;;
19554;SDS011;9924;50.828;6.440;2023-02-18T15:55:38;3.95;;;3.03;;
19554;SDS011;9924;50.828;6.440;2023-02-18T15:58:29;4.85;;;3.35;;
19554;SDS011;9924;50.828;6.440;2023-02-18T16:04:27;5.47;;;4.30;;
19554;SDS011;9924;50.828;6.440;2023-02-18T16:07:19;6.93;;;4.95;;
19554;SDS011;9924;50.828;6.440;2023-02-18T16:12:59;4.32;;;3.90;;
19554;SDS011;9924;50.828;6.440;2023-02-18T16:15:46;7.03;;;4.78;;
19554;SDS011;9924;50.828;6.440;2023-02-18T16:21:39;7.35;;;4.95;;
19554;SDS011;9924;50.828;6.440;2023-02-18T16:24:28;5.40;;;4.57;;
19554;SDS011;9924;50.828;6.440;2023-02-18T16:27:17;8.00;;;5.50;;
19554;SDS011;9924;50.828;6.440;2023-02-18T16:30:15;6.32;;;5.10;;
19554;SDS011;9924;50.828;6.440;2023-02-18T16:33:02;7.40;;;5.93;;
19554;SDS011;9924;50.828;6.440;2023-02-18T16:35:49;7.70;;;6.13;;
19554;SDS011;9924;50.828;6.440;2023-02-18T16:38:41;18.00;;;12.23;;
19554;SDS011;9924;50.828;6.440;2023-02-18T16:41:30;49.45;;;27.50;;
19554;SDS011;9924;50.828;6.440;2023-02-18T16:44:16;81.85;;;44.03;;
19554;SDS011;9924;50.828;6.440;2023-02-18T16:47:01;25.90;;;16.55;;
19554;SDS011;9924;50.828;6.440;2023-02-18T16:49:47;8.25;;;5.68;;
19554;SDS011;9924;50.828;6.440;2023-02-18T16:52:35;5.95;;;4.70;;
19554;SDS011;9924;50.828;6.440;2023-02-18T16:55:21;5.25;;;4.47;;
19554;SDS011;9924;50.828;6.440;2023-02-18T16:58:08;8.73;;;5.80;;
19554;SDS011;9924;50.828;6.440;2023-02-18T17:00:53;6.97;;;5.30;;
19554;SDS011;9924;50.828;6.440;2023-02-18T17:03:38;8.52;;;6.10;;
19554;SDS011;9924;50.828;6.440;2023-02-18T17:06:22;5.50;;;4.70;;
19554;SDS011;9924;50.828;6.440;2023-02-18T17:09:25;7.57;;;4.32;;
19554;SDS011;9924;50.828;6.440;2023-02-18T17:12:10;5.97;;;3.90;;
19554;SDS011;9924;50.828;6.440;2023-02-18T17:14:56;5.75;;;4.20;;
19554;SDS011;9924;50.828;6.440;2023-02-18T17:17:43;3.90;;;3.50;;
19554;SDS011;9924;50.828;6.440;2023-02-18T17:20:37;4.75;;;3.90;;
19554;SDS011;9924;50.828;6.440;2023-02-18T17:23:22;6.60;;;4.70;;
19554;SDS011;9924;50.828;6.440;2023-02-18T17:26:29;4.85;;;3.70;;
19554;SDS011;9924;50.828;6.440;2023-02-18T17:29:13;8.20;;;5.25;;
19554;SDS011;9924;50.828;6.440;2023-02-18T17:31:59;5.70;;;4.75;;
19554;SDS011;9924;50.828;6.440;2023-02-18T17:34:45;8.30;;;5.03;;
19554;SDS011;9924;50.828;6.440;2023-02-18T17:37:34;6.35;;;4.38;;
19554;SDS011;9924;50.828;6.440;2023-02-18T17:40:22;6.72;;;4.13;;
19554;SDS011;9924;50.828;6.440;2023-02-18T17:43:12;8.93;;;5.95;;
19554;SDS011;9924;50.828;6.440;2023-02-18T17:45:58;5.88;;;4.65;;
19554;SDS011;9924;50.828;6.440;2023-02-18T17:48:47;6.32;;;3.88;;
19554;SDS011;9924;50.828;6.440;2023-02-18T17:51:32;5.55;;;4.50;;
19554;SDS011;9924;50.828;6.440;2023-02-18T17:54:24;7.55;;;4.80;;
19554;SDS011;9924;50.828;6.440;2023-02-18T17:57:17;8.02;;;5.72;;
19554;SDS011;9924;50.828;6.440;2023-02-18T18:00:05;5.55;;;4.72;;
19554;SDS011;9924;50.828;6.440;2023-02-18T18:02:51;4.93;;;4.32;;
19554;SDS011;9924;50.828;6.440;2023-02-18T18:05:38;5.35;;;4.50;;
19554;SDS011;9924;50.828;6.440;2023-02-18T18:08:24;5.60;;;4.45;;
19554;SDS011;9924;50.828;6.440;2023-02-18T18:11:35;8.20;;;5.75;;
19554;SDS011;9924;50.828;6.440;2023-02-18T18:14:20;7.40;;;4.97;;
19554;SDS011;9924;50.828;6.440;2023-02-18T18:17:09;7.63;;;4.32;;
19554;SDS011;9924;50.828;6.440;2023-02-18T18:19:55;5.88;;;4.80;;
19554;SDS011;9924;50.828;6.440;2023-02-18T18:22:41;6.15;;;4.40;;
19554;SDS011;9924;50.828;6.440;2023-02-18T18:25:46;5.05;;;4.03;;
19554;SDS011;9924;50.828;6.440;2023-02-18T18:28:37;5.55;;;3.90;;
19554;SDS011;9924;50.828;6.440;2023-02-18T18:31:22;4.85;;;4.30;;
19554;SDS011;9924;50.828;6.440;2023-02-18T18:34:07;5.60;;;4.30;;
19554;SDS011;9924;50.828;6.440;2023-02-18T18:36:52;5.30;;;3.72;;
19554;SDS011;9924;50.828;6.440;2023-02-18T18:39:37;5.75;;;4.40;;
19554;SDS011;9924;50.828;6.440;2023-02-18T18:42:22;7.35;;;4.45;;
19554;SDS011;9924;50.828;6.440;2023-02-18T18:45:20;5.38;;;4.28;;
19554;SDS011;9924;50.828;6.440;2023-02-18T18:48:10;5.10;;;4.25;;
19554;SDS011;9924;50.828;6.440;2023-02-18T18:50:55;7.13;;;5.25;;
19554;SDS011;9924;50.828;6.440;2023-02-18T18:53:42;7.78;;;4.75;;
19554;SDS011;9924;50.828;6.440;2023-02-18T18:56:31;6.50;;;5.07;;
19554;SDS011;9924;50.828;6.440;2023-02-18T18:59:20;6.03;;;4.82;;
19554;SDS011;9924;50.828;6.440;2023-02-18T19:02:13;5.47;;;4.60;;
19554;SDS011;9924;50.828;6.440;2023-02-18T19:04:59;6.65;;;4.70;;
19554;SDS011;9924;50.828;6.440;2023-02-18T19:07:46;5.95;;;4.50;;
19554;SDS011;9924;50.828;6.440;2023-02-18T19:10:32;4.50;;;3.80;;
19554;SDS011;9924;50.828;6.440;2023-02-18T19:13:24;6.63;;;4.78;;
19554;SDS011;9924;50.828;6.440;2023-02-18T19:16:13;5.63;;;5.03;;
19554;SDS011;9924;50.828;6.440;2023-02-18T19:19:14;6.72;;;5.03;;
19554;SDS011;9924;50.828;6.440;2023-02-18T19:22:03;5.90;;;4.82;;
19554;SDS011;9924;50.828;6.440;2023-02-18T19:24:48;7.63;;;5.47;;
19554;SDS011;9924;50.828;6.440;2023-02-18T19:27:42;8.55;;;6.28;;
19554;SDS011;9924;50.828;6.440;2023-02-18T19:30:30;8.75;;;6.80;;
19554;SDS011;9924;50.828;6.440;2023-02-18T19:33:16;8.55;;;6.63;;
19554;SDS011;9924;50.828;6.440;2023-02-18T19:36:06;7.32;;;6.28;;
19554;SDS011;9924;50.828;6.440;2023-02-18T19:38:52;7.80;;;6.32;;
19554;SDS011;9924;50.828;6.440;2023-02-18T19:41:38;7.97;;;6.35;;
19554;SDS011;9924;50.828;6.440;2023-02-18T19:44:42;8.45;;;6.93;;
19554;SDS011;9924;50.828;6.440;2023-02-18T19:47:31;8.60;;;5.70;;
19554;SDS011;9924;50.828;6.440;2023-02-18T19:50:15;8.90;;;5.93;;
19554;SDS011;9924;50.828;6.440;2023-02-18T19:53:01;8.18;;;6.68;;
19554;SDS011;9924;50.828;6.440;2023-02-18T19:55:56;7.55;;;5.93;;